sensor_id;sensor_type;location;lat;lon;timestamp;pressure;altitude;pressure_sealevel;temperature;humidity
10587;BME280;5341;47.606;7.576;2023-03-23T00:01:31;98294.59;;;17.33;49.01
10587;BME280;5341;47.606;7.576;2023-03-23T00:04:03;98298.31;;;17.32;49.26
10587;BME280;5341;47.606;7.576;2023-03-23T00:06:31;98303.16;;;17.29;49.08
10587;BME280;5341;47.606;7.576;2023-03-23T00:09:01;98306.09;;;17.28;49.36
10587;BME280;5341;47.606;7.576;2023-03-23T00:11:31;98309.03;;;17.26;49.39
10587;BME280;5341;47.606;7.576;2023-03-23T00:14:00;98305.50;;;17.26;49.33
10587;BME280;5341;47.606;7.576;2023-03-23T00:16:31;98308.22;;;17.26;49.58
10587;BME280;5341;47.606;7.576;2023-03-23T00:19:00;98311.97;;;17.25;49.21
10587;BME280;5341;47.606;7.576;2023-03-23T00:21:29;98303.88;;;17.25;49.24
10587;BME280;5341;47.606;7.576;2023-03-23T00:24:05;98303.03;;;17.24;49.44
10587;BME280;5341;47.606;7.576;2023-03-23T00:26:33;98302.72;;;17.21;49.41
10587;BME280;5341;47.606;7.576;2023-03-23T00:29:03;98298.31;;;17.20;49.50
10587;BME280;5341;47.606;7.576;2023-03-23T00:31:32;98304.78;;;17.19;49.33
10587;BME280;5341;47.606;7.576;2023-03-23T00:34:03;98308.56;;;17.18;49.36
10587;BME280;5341;47.606;7.576;2023-03-23T00:36:32;98298.00;;;17.16;49.22
10587;BME280;5341;47.606;7.576;2023-03-23T00:39:02;98300.94;;;17.15;49.20
10587;BME280;5341;47.606;7.576;2023-03-23T00:41:30;98303.88;;;17.13;49.20
10587;BME280;5341;47.606;7.576;2023-03-23T00:43:59;98303.06;;;17.13;49.63
10587;BME280;5341;47.606;7.576;2023-03-23T00:46:27;98306.81;;;17.12;49.34
10587;BME280;5341;47.606;7.576;2023-03-23T00:48:56;98298.94;;;17.10;49.32
10587;BME280;5341;47.606;7.576;2023-03-23T00:51:25;98298.13;;;17.10;49.29
10587;BME280;5341;47.606;7.576;2023-03-23T00:53:53;98295.88;;;17.07;49.33
10587;BME280;5341;47.606;7.576;2023-03-23T00:56:21;98300.94;;;17.03;49.20
10587;BME280;5341;47.606;7.576;2023-03-23T00:58:49;98291.44;;;17.01;48.88
10587;BME280;5341;47.606;7.576;2023-03-23T01:01:16;98283.56;;;16.99;48.97
10587;BME280;5341;47.606;7.576;2023-03-23T01:03:43;98288.38;;;16.97;49.19
10587;BME280;5341;47.606;7.576;2023-03-23T01:06:13;98290.47;;;16.95;48.99
10587;BME280;5341;47.606;7.576;2023-03-23T01:08:43;98276.84;;;16.90;48.70
10587;BME280;5341;47.606;7.576;2023-03-23T01:11:13;98273.22;;;16.84;48.71
10587;BME280;5341;47.606;7.576;2023-03-23T01:13:41;98278.84;;;16.83;48.77
10587;BME280;5341;47.606;7.576;2023-03-23T01:16:09;98273.69;;;16.81;48.82
10587;BME280;5341;47.606;7.576;2023-03-23T01:18:37;98263.13;;;16.80;48.93
10587;BME280;5341;47.606;7.576;2023-03-23T01:21:06;98264.16;;;16.79;48.95
10587;BME280;5341;47.606;7.576;2023-03-23T01:23:35;98261.47;;;16.79;48.82
10587;BME280;5341;47.606;7.576;2023-03-23T01:26:04;98247.16;;;16.78;49.16
10587;BME280;5341;47.606;7.576;2023-03-23T01:28:31;98235.53;;;16.78;49.46
10587;BME280;5341;47.606;7.576;2023-03-23T01:31:00;98237.41;;;16.77;48.85
10587;BME280;5341;47.606;7.576;2023-03-23T01:33:28;98233.06;;;16.76;49.07
10587;BME280;5341;47.606;7.576;2023-03-23T01:35:56;98227.66;;;16.76;49.43
10587;BME280;5341;47.606;7.576;2023-03-23T01:38:24;98227.91;;;16.75;49.06
10587;BME280;5341;47.606;7.576;2023-03-23T01:40:53;98227.91;;;16.75;49.25
10587;BME280;5341;47.606;7.576;2023-03-23T01:43:20;98225.44;;;16.73;49.30
10587;BME280;5341;47.606;7.576;2023-03-23T01:45:47;98214.63;;;16.73;49.29
10587;BME280;5341;47.606;7.576;2023-03-23T01:48:17;98213.00;;;16.72;49.19
10587;BME280;5341;47.606;7.576;2023-03-23T01:50:52;98211.94;;;16.73;49.12
10587;BME280;5341;47.606;7.576;2023-03-23T01:53:26;98210.31;;;16.72;49.47
10587;BME280;5341;47.606;7.576;2023-03-23T01:55:57;98204.28;;;16.70;49.05
10587;BME280;5341;47.606;7.576;2023-03-23T01:58:27;98203.47;;;16.69;49.02
10587;BME280;5341;47.606;7.576;2023-03-23T02:00:55;98204.53;;;16.68;49.10
10587;BME280;5341;47.606;7.576;2023-03-23T02:03:26;98201.00;;;16.68;49.62
10587;BME280;5341;47.606;7.576;2023-03-23T02:05:55;98201.81;;;16.68;49.31
10587;BME280;5341;47.606;7.576;2023-03-23T02:08:35;98192.91;;;16.68;48.95
10587;BME280;5341;47.606;7.576;2023-03-23T02:11:12;98201.00;;;16.68;49.12
10587;BME280;5341;47.606;7.576;2023-03-23T02:13:42;98202.03;;;16.67;49.20
10587;BME280;5341;47.606;7.576;2023-03-23T02:16:14;98198.50;;;16.66;49.37
10587;BME280;5341;47.606;7.576;2023-03-23T02:18:53;98199.13;;;16.68;49.16
10587;BME280;5341;47.606;7.576;2023-03-23T02:21:54;98187.50;;;16.68;49.48
10587;BME280;5341;47.606;7.576;2023-03-23T02:24:51;98186.44;;;16.69;49.58
10587;BME280;5341;47.606;7.576;2023-03-23T02:30:25;98170.50;;;16.67;49.55
10587;BME280;5341;47.606;7.576;2023-03-23T02:33:11;98164.22;;;16.67;49.51
10587;BME280;5341;47.606;7.576;2023-03-23T02:35:44;98170.50;;;16.67;49.86
10587;BME280;5341;47.606;7.576;2023-03-23T02:38:15;98166.13;;;16.66;49.76
10587;BME280;5341;47.606;7.576;2023-03-23T02:40:45;98162.59;;;16.66;49.59
10587;BME280;5341;47.606;7.576;2023-03-23T02:43:16;98157.19;;;16.66;49.77
10587;BME280;5341;47.606;7.576;2023-03-23T02:45:45;98150.16;;;16.65;50.00
10587;BME280;5341;47.606;7.576;2023-03-23T02:48:16;98140.41;;;16.64;49.60
10587;BME280;5341;47.606;7.576;2023-03-23T02:50:49;98136.91;;;16.63;49.67
10587;BME280;5341;47.606;7.576;2023-03-23T02:53:20;98137.97;;;16.62;49.96
10587;BME280;5341;47.606;7.576;2023-03-23T02:55:53;98139.03;;;16.61;50.06
10587;BME280;5341;47.606;7.576;2023-03-23T02:58:25;98140.06;;;16.60;49.70
10587;BME280;5341;47.606;7.576;2023-03-23T03:00:54;98147.34;;;16.60;49.78
10587;BME280;5341;47.606;7.576;2023-03-23T03:03:26;98150.06;;;16.60;49.94
10587;BME280;5341;47.606;7.576;2023-03-23T03:06:02;98157.09;;;16.61;50.22
10587;BME280;5341;47.606;7.576;2023-03-23T03:08:40;98157.09;;;16.61;50.19
10587;BME280;5341;47.606;7.576;2023-03-23T03:11:12;98160.63;;;16.61;50.63
10587;BME280;5341;47.606;7.576;2023-03-23T03:13:46;98159.56;;;16.62;50.16
10587;BME280;5341;47.606;7.576;2023-03-23T03:16:24;98160.63;;;16.61;50.36
10587;BME280;5341;47.606;7.576;2023-03-23T03:18:58;98159.56;;;16.62;50.18
10587;BME280;5341;47.606;7.576;2023-03-23T03:21:29;98159.78;;;16.61;50.16
10587;BME280;5341;47.606;7.576;2023-03-23T03:24:01;98155.22;;;16.61;49.83
10587;BME280;5341;47.606;7.576;2023-03-23T03:26:31;98162.94;;;16.58;50.04
10587;BME280;5341;47.606;7.576;2023-03-23T03:29:20;98150.97;;;16.54;49.72
10587;BME280;5341;47.606;7.576;2023-03-23T03:31:53;98143.94;;;16.53;49.76
10587;BME280;5341;47.606;7.576;2023-03-23T03:34:27;98144.19;;;16.51;49.71
10587;BME280;5341;47.606;7.576;2023-03-23T03:36:59;98141.72;;;16.50;49.76
10587;BME280;5341;47.606;7.576;2023-03-23T03:39:27;98141.72;;;16.50;49.59
10587;BME280;5341;47.606;7.576;2023-03-23T03:41:55;98150.88;;;16.49;49.73
10587;BME280;5341;47.606;7.576;2023-03-23T03:44:22;98142.78;;;16.49;49.83
10587;BME280;5341;47.606;7.576;2023-03-23T03:46:49;98144.66;;;16.48;49.92
10587;BME280;5341;47.606;7.576;2023-03-23T03:49:16;98134.44;;;16.50;50.29
10587;BME280;5341;47.606;7.576;2023-03-23T03:51:45;98133.63;;;16.50;50.23
10587;BME280;5341;47.606;7.576;2023-03-23T03:54:19;98123.91;;;16.49;49.89
10587;BME280;5341;47.606;7.576;2023-03-23T03:56:46;98121.19;;;16.49;49.87
10587;BME280;5341;47.606;7.576;2023-03-23T03:59:39;98126.81;;;16.47;50.04
10587;BME280;5341;47.606;7.576;2023-03-23T04:02:25;98125.97;;;16.47;50.36
10587;BME280;5341;47.606;7.576;2023-03-23T04:04:54;98124.34;;;16.46;50.29
10587;BME280;5341;47.606;7.576;2023-03-23T04:07:23;98132.44;;;16.46;49.75
10587;BME280;5341;47.606;7.576;2023-03-23T04:09:52;98138.06;;;16.44;50.08
10587;BME280;5341;47.606;7.576;2023-03-23T04:12:20;98141.00;;;16.42;49.79
10587;BME280;5341;47.606;7.576;2023-03-23T04:14:54;98145.59;;;16.42;49.88
10587;BME280;5341;47.606;7.576;2023-03-23T04:17:27;98147.47;;;16.41;50.20
10587;BME280;5341;47.606;7.576;2023-03-23T04:19:55;98147.47;;;16.41;50.05
10587;BME280;5341;47.606;7.576;2023-03-23T04:22:26;98149.94;;;16.43;50.45
10587;BME280;5341;47.606;7.576;2023-03-23T04:25:00;98164.25;;;16.44;50.08
10587;BME280;5341;47.606;7.576;2023-03-23T04:27:34;98157.19;;;16.42;50.47
10587;BME280;5341;47.606;7.576;2023-03-23T04:30:06;98160.72;;;16.43;50.36
10587;BME280;5341;47.606;7.576;2023-03-23T04:32:56;98163.41;;;16.43;50.18
10587;BME280;5341;47.606;7.576;2023-03-23T04:35:28;98163.41;;;16.43;50.36
10587;BME280;5341;47.606;7.576;2023-03-23T04:38:27;98173.16;;;16.44;50.25
10587;BME280;5341;47.606;7.576;2023-03-23T04:41:02;98168.00;;;16.42;50.61
10587;BME280;5341;47.606;7.576;2023-03-23T04:43:49;98185.25;;;16.41;50.34
10587;BME280;5341;47.606;7.576;2023-03-23T04:46:41;98179.84;;;16.41;50.38
10587;BME280;5341;47.606;7.576;2023-03-23T04:49:13;98179.84;;;16.41;50.55
10587;BME280;5341;47.606;7.576;2023-03-23T04:51:48;98180.09;;;16.40;50.37
10587;BME280;5341;47.606;7.576;2023-03-23T04:54:26;98184.91;;;16.38;50.50
10587;BME280;5341;47.606;7.576;2023-03-23T04:56:57;98189.47;;;16.37;50.15
10587;BME280;5341;47.606;7.576;2023-03-23T04:59:26;98191.13;;;16.38;50.71
10587;BME280;5341;47.606;7.576;2023-03-23T05:02:03;98184.09;;;16.37;50.48
10587;BME280;5341;47.606;7.576;2023-03-23T05:04:31;98190.53;;;16.36;50.45
10587;BME280;5341;47.606;7.576;2023-03-23T05:07:08;98193.44;;;16.35;50.39
10587;BME280;5341;47.606;7.576;2023-03-23T05:09:46;98205.28;;;16.34;50.39
10587;BME280;5341;47.606;7.576;2023-03-23T05:12:16;98203.66;;;16.33;50.71
10587;BME280;5341;47.606;7.576;2023-03-23T05:15:14;98217.38;;;16.31;50.19
10587;BME280;5341;47.606;7.576;2023-03-23T05:17:43;98215.16;;;16.28;50.53
10587;BME280;5341;47.606;7.576;2023-03-23T05:20:16;98207.28;;;16.27;50.64
10587;BME280;5341;47.606;7.576;2023-03-23T05:22:52;98207.88;;;16.29;50.63
10587;BME280;5341;47.606;7.576;2023-03-23T05:25:30;98204.34;;;16.28;50.72
10587;BME280;5341;47.606;7.576;2023-03-23T05:28:03;98202.47;;;16.29;50.66
10587;BME280;5341;47.606;7.576;2023-03-23T05:30:46;98200.84;;;16.28;50.25
10587;BME280;5341;47.606;7.576;2023-03-23T05:33:15;98197.56;;;16.26;50.51
10587;BME280;5341;47.606;7.576;2023-03-23T05:35:50;98185.94;;;16.25;50.60
10587;BME280;5341;47.606;7.576;2023-03-23T05:38:24;98192.16;;;16.26;50.29
10587;BME280;5341;47.606;7.576;2023-03-23T05:40:54;98182.44;;;16.25;50.69
10587;BME280;5341;47.606;7.576;2023-03-23T05:43:27;98194.47;;;16.22;50.15
10587;BME280;5341;47.606;7.576;2023-03-23T05:46:15;98192.25;;;16.19;50.71
10587;BME280;5341;47.606;7.576;2023-03-23T05:48:42;98205.75;;;16.19;50.51
10587;BME280;5341;47.606;7.576;2023-03-23T05:51:14;98203.03;;;16.19;50.41
10587;BME280;5341;47.606;7.576;2023-03-23T05:53:44;98211.38;;;16.18;50.27
10587;BME280;5341;47.606;7.576;2023-03-23T05:56:15;98218.19;;;16.20;50.33
10587;BME280;5341;47.606;7.576;2023-03-23T05:59:01;98218.41;;;16.19;50.50
10587;BME280;5341;47.606;7.576;2023-03-23T06:01:31;98221.94;;;16.19;50.56
10587;BME280;5341;47.606;7.576;2023-03-23T06:03:59;98229.78;;;16.21;50.79
10587;BME280;5341;47.606;7.576;2023-03-23T06:06:42;98237.66;;;16.22;50.77
10587;BME280;5341;47.606;7.576;2023-03-23T06:09:11;98242.00;;;16.23;50.47
10587;BME280;5341;47.606;7.576;2023-03-23T06:12:07;98244.47;;;16.25;50.78
10587;BME280;5341;47.606;7.576;2023-03-23T06:15:01;98246.13;;;16.26;51.02
10587;BME280;5341;47.606;7.576;2023-03-23T06:17:49;98242.13;;;16.28;50.90
10587;BME280;5341;47.606;7.576;2023-03-23T06:20:24;98243.78;;;16.29;51.04
10587;BME280;5341;47.606;7.576;2023-03-23T06:22:53;98244.38;;;16.31;50.79
10587;BME280;5341;47.606;7.576;2023-03-23T06:25:31;98239.78;;;16.32;50.75
10587;BME280;5341;47.606;7.576;2023-03-23T06:28:00;98248.69;;;16.32;51.17
10587;BME280;5341;47.606;7.576;2023-03-23T06:30:29;98252.22;;;16.33;50.82
10587;BME280;5341;47.606;7.576;2023-03-23T06:32:57;98248.69;;;16.32;51.25
10587;BME280;5341;47.606;7.576;2023-03-23T06:35:47;98247.41;;;16.35;51.04
10587;BME280;5341;47.606;7.576;2023-03-23T06:38:47;98248.25;;;16.35;51.13
10587;BME280;5341;47.606;7.576;2023-03-23T06:41:18;98242.00;;;16.35;51.18
10587;BME280;5341;47.606;7.576;2023-03-23T06:43:47;98251.97;;;16.34;51.02
10587;BME280;5341;47.606;7.576;2023-03-23T06:46:19;98259.88;;;16.36;50.99
10587;BME280;5341;47.606;7.576;2023-03-23T06:48:56;98273.13;;;16.37;51.15
10587;BME280;5341;47.606;7.576;2023-03-23T06:51:39;98273.94;;;16.38;51.55
10587;BME280;5341;47.606;7.576;2023-03-23T06:54:06;98269.97;;;16.40;51.59
10587;BME280;5341;47.606;7.576;2023-03-23T06:56:38;98279.69;;;16.41;51.62
10587;BME280;5341;47.606;7.576;2023-03-23T06:59:08;98276.78;;;16.43;51.34
10587;BME280;5341;47.606;7.576;2023-03-23T07:01:37;98284.63;;;16.45;51.33
10587;BME280;5341;47.606;7.576;2023-03-23T07:04:05;98289.78;;;16.46;51.47
10587;BME280;5341;47.606;7.576;2023-03-23T07:06:44;98282.50;;;16.47;51.17
10587;BME280;5341;47.606;7.576;2023-03-23T07:09:12;98292.72;;;16.45;51.65
10587;BME280;5341;47.606;7.576;2023-03-23T07:11:41;98284.63;;;16.45;51.84
10587;BME280;5341;47.606;7.576;2023-03-23T07:14:20;98283.56;;;16.46;52.02
10587;BME280;5341;47.606;7.576;2023-03-23T07:16:48;98276.28;;;16.46;51.89
10587;BME280;5341;47.606;7.576;2023-03-23T07:19:16;98276.09;;;16.48;51.50
10587;BME280;5341;47.606;7.576;2023-03-23T07:21:43;98286.66;;;16.49;51.94
10587;BME280;5341;47.606;7.576;2023-03-23T07:24:11;98275.63;;;16.51;52.24
10587;BME280;5341;47.606;7.576;2023-03-23T07:27:15;98286.19;;;16.52;51.89
10587;BME280;5341;47.606;7.576;2023-03-23T07:29:44;98286.75;;;16.54;52.07
10587;BME280;5341;47.606;7.576;2023-03-23T07:32:18;98291.69;;;16.57;52.05
10587;BME280;5341;47.606;7.576;2023-03-23T07:34:46;98285.25;;;16.58;51.99
10587;BME280;5341;47.606;7.576;2023-03-23T07:37:31;98296.03;;;16.58;51.79
10587;BME280;5341;47.606;7.576;2023-03-23T07:40:02;98296.66;;;16.60;52.12
10587;BME280;5341;47.606;7.576;2023-03-23T07:42:43;98293.72;;;16.62;52.09
10587;BME280;5341;47.606;7.576;2023-03-23T07:45:21;98288.91;;;16.64;52.29
10587;BME280;5341;47.606;7.576;2023-03-23T07:47:48;98299.47;;;16.65;52.13
10587;BME280;5341;47.606;7.576;2023-03-23T07:50:16;98311.47;;;16.69;52.15
10587;BME280;5341;47.606;7.576;2023-03-23T07:52:46;98305.84;;;16.71;52.56
10587;BME280;5341;47.606;7.576;2023-03-23T07:55:18;98319.13;;;16.73;52.48
10587;BME280;5341;47.606;7.576;2023-03-23T07:58:08;98319.72;;;16.75;52.37
10587;BME280;5341;47.606;7.576;2023-03-23T08:00:37;98332.97;;;16.76;52.85
10587;BME280;5341;47.606;7.576;2023-03-23T08:03:08;98330.03;;;16.78;52.69
10587;BME280;5341;47.606;7.576;2023-03-23T08:05:57;98331.69;;;16.79;52.58
10587;BME280;5341;47.606;7.576;2023-03-23T08:08:42;98342.25;;;16.80;52.37
10587;BME280;5341;47.606;7.576;2023-03-23T08:11:35;98349.28;;;16.81;52.97
10587;BME280;5341;47.606;7.576;2023-03-23T08:14:35;98336.84;;;16.80;53.05
10587;BME280;5341;47.606;7.576;2023-03-23T08:17:26;98330.38;;;16.81;52.89
10587;BME280;5341;47.606;7.576;2023-03-23T08:20:23;98346.59;;;16.81;53.11
10587;BME280;5341;47.606;7.576;2023-03-23T08:22:52;98347.19;;;16.83;52.76
10587;BME280;5341;47.606;7.576;2023-03-23T08:25:47;98349.06;;;16.83;53.09
10587;BME280;5341;47.606;7.576;2023-03-23T08:28:49;98367.75;;;16.84;53.02
10587;BME280;5341;47.606;7.576;2023-03-23T08:31:20;98357.78;;;16.85;52.73
10587;BME280;5341;47.606;7.576;2023-03-23T08:34:06;98358.59;;;16.85;52.98
10587;BME280;5341;47.606;7.576;2023-03-23T08:37:06;98364.81;;;16.86;52.88
10587;BME280;5341;47.606;7.576;2023-03-23T08:39:53;98355.66;;;16.87;53.22
10587;BME280;5341;47.606;7.576;2023-03-23T08:42:36;98371.38;;;16.90;53.42
10587;BME280;5341;47.606;7.576;2023-03-23T08:45:19;98360.13;;;16.93;53.17
10587;BME280;5341;47.606;7.576;2023-03-23T08:48:25;98359.88;;;16.94;53.34
10587;BME280;5341;47.606;7.576;2023-03-23T08:51:07;98359.66;;;16.96;53.57
10587;BME280;5341;47.606;7.576;2023-03-23T08:53:53;98362.13;;;16.97;53.52
10587;BME280;5341;47.606;7.576;2023-03-23T08:56:43;98360.84;;;17.00;53.60
10587;BME280;5341;47.606;7.576;2023-03-23T08:59:31;98351.69;;;17.01;53.67
10587;BME280;5341;47.606;7.576;2023-03-23T09:02:18;98340.63;;;17.03;53.61
10587;BME280;5341;47.606;7.576;2023-03-23T09:04:52;98335.81;;;17.05;53.88
10587;BME280;5341;47.606;7.576;2023-03-23T09:07:29;98343.44;;;17.08;53.88
10587;BME280;5341;47.606;7.576;2023-03-23T09:09:57;98337.84;;;17.09;53.67
10587;BME280;5341;47.606;7.576;2023-03-23T09:12:24;98331.38;;;17.10;53.57
10587;BME280;5341;47.606;7.576;2023-03-23T09:14:52;98337.34;;;17.12;53.42
10587;BME280;5341;47.606;7.576;2023-03-23T09:17:19;98343.34;;;17.14;53.88
10587;BME280;5341;47.606;7.576;2023-03-23T09:19:46;98346.63;;;17.16;53.51
10587;BME280;5341;47.606;7.576;2023-03-23T09:22:13;98344.50;;;17.18;53.79
10587;BME280;5341;47.606;7.576;2023-03-23T09:24:46;98343.25;;;17.21;54.05
10587;BME280;5341;47.606;7.576;2023-03-23T09:27:13;98338.19;;;17.24;53.51
10587;BME280;5341;47.606;7.576;2023-03-23T09:29:41;98333.59;;;17.25;53.61
10587;BME280;5341;47.606;7.576;2023-03-23T09:32:10;98336.06;;;17.26;53.37
10587;BME280;5341;47.606;7.576;2023-03-23T09:34:39;98347.44;;;17.28;53.42
10587;BME280;5341;47.606;7.576;2023-03-23T09:37:06;98337.22;;;17.31;53.37
10587;BME280;5341;47.606;7.576;2023-03-23T09:39:34;98345.94;;;17.33;53.38
10587;BME280;5341;47.606;7.576;2023-03-23T09:42:16;98346.28;;;17.36;54.24
10587;BME280;5341;47.606;7.576;2023-03-23T09:44:57;98344.75;;;17.40;53.50
10587;BME280;5341;47.606;7.576;2023-03-23T09:47:37;98347.19;;;17.42;53.50
10587;BME280;5341;47.606;7.576;2023-03-23T09:50:11;98350.84;;;17.47;53.70
10587;BME280;5341;47.606;7.576;2023-03-23T09:52:44;98348.97;;;17.48;52.96
10587;BME280;5341;47.606;7.576;2023-03-23T09:55:15;98346.63;;;17.51;52.86
10587;BME280;5341;47.606;7.576;2023-03-23T09:57:49;98347.78;;;17.55;52.63
10587;BME280;5341;47.606;7.576;2023-03-23T10:00:23;98348.38;;;17.57;52.94
10587;BME280;5341;47.606;7.576;2023-03-23T10:02:58;98356.59;;;17.63;52.75
10587;BME280;5341;47.606;7.576;2023-03-23T10:05:31;98358.81;;;17.66;52.18
10587;BME280;5341;47.606;7.576;2023-03-23T10:08:00;98358.41;;;17.69;52.08
10587;BME280;5341;47.606;7.576;2023-03-23T10:10:33;98353.56;;;17.71;51.65
10587;BME280;5341;47.606;7.576;2023-03-23T10:13:11;98354.97;;;17.73;51.67
10587;BME280;5341;47.606;7.576;2023-03-23T10:15:43;98352.84;;;17.75;51.40
10587;BME280;5341;47.606;7.576;2023-03-23T10:18:17;98346.94;;;17.78;51.23
10587;BME280;5341;47.606;7.576;2023-03-23T10:20:48;98337.56;;;17.81;51.21
10587;BME280;5341;47.606;7.576;2023-03-23T10:23:39;98328.13;;;17.83;50.56
10587;BME280;5341;47.606;7.576;2023-03-23T10:26:15;98333.31;;;17.85;50.49
10587;BME280;5341;47.606;7.576;2023-03-23T10:28:49;98357.75;;;17.90;50.42
10587;BME280;5341;47.606;7.576;2023-03-23T10:31:21;98354.09;;;17.96;50.42
10587;BME280;5341;47.606;7.576;2023-03-23T10:33:53;98355.56;;;18.04;50.92
10587;BME280;5341;47.606;7.576;2023-03-23T10:36:25;98360.38;;;18.13;51.26
10587;BME280;5341;47.606;7.576;2023-03-23T10:38:59;98364.34;;;18.23;51.18
10587;BME280;5341;47.606;7.576;2023-03-23T10:41:29;98363.16;;;18.30;51.05
10587;BME280;5341;47.606;7.576;2023-03-23T10:43:58;98361.69;;;18.39;50.82
10587;BME280;5341;47.606;7.576;2023-03-23T10:46:39;98351.28;;;18.48;50.74
10587;BME280;5341;47.606;7.576;2023-03-23T10:49:15;98347.13;;;18.57;50.51
10587;BME280;5341;47.606;7.576;2023-03-23T10:51:59;98341.09;;;18.67;50.36
10587;BME280;5341;47.606;7.576;2023-03-23T10:54:33;98340.22;;;18.78;50.00
10587;BME280;5341;47.606;7.576;2023-03-23T10:57:21;98338.47;;;18.89;50.01
10587;BME280;5341;47.606;7.576;2023-03-23T10:59:51;98344.63;;;19.01;50.44
10587;BME280;5341;47.606;7.576;2023-03-23T11:02:24;98334.53;;;19.13;50.69
10587;BME280;5341;47.606;7.576;2023-03-23T11:04:59;98340.66;;;19.25;50.94
10587;BME280;5341;47.606;7.576;2023-03-23T11:07:33;98354.78;;;19.61;49.08
10587;BME280;5341;47.606;7.576;2023-03-23T11:10:15;98352.59;;;19.80;49.29
10587;BME280;5341;47.606;7.576;2023-03-23T11:12:51;98341.88;;;19.90;49.22
10587;BME280;5341;47.606;7.576;2023-03-23T11:15:34;98349.31;;;20.00;48.91
10587;BME280;5341;47.606;7.576;2023-03-23T11:18:34;98336.88;;;20.04;47.77
10587;BME280;5341;47.606;7.576;2023-03-23T11:21:04;98340.53;;;20.14;47.58
10587;BME280;5341;47.606;7.576;2023-03-23T11:23:34;98349.13;;;20.33;47.34
10587;BME280;5341;47.606;7.576;2023-03-23T11:26:09;98340.69;;;20.52;46.17
10587;BME280;5341;47.606;7.576;2023-03-23T11:28:44;98341.91;;;20.66;46.00
10587;BME280;5341;47.606;7.576;2023-03-23T11:31:21;98339.19;;;20.66;45.38
10587;BME280;5341;47.606;7.576;2023-03-23T11:33:52;98342.72;;;20.66;44.98
10587;BME280;5341;47.606;7.576;2023-03-23T11:36:21;98340.78;;;20.62;44.86
10587;BME280;5341;47.606;7.576;2023-03-23T11:38:56;98342.34;;;20.58;44.60
10587;BME280;5341;47.606;7.576;2023-03-23T11:41:28;98339.09;;;20.56;44.27
10587;BME280;5341;47.606;7.576;2023-03-23T11:43:56;98333.66;;;20.56;43.92
10587;BME280;5341;47.606;7.576;2023-03-23T11:46:34;98332.84;;;20.55;43.26
10587;BME280;5341;47.606;7.576;2023-03-23T11:49:10;98335.53;;;20.55;43.21
10587;BME280;5341;47.606;7.576;2023-03-23T11:51:49;98333.66;;;20.56;43.77
10587;BME280;5341;47.606;7.576;2023-03-23T11:54:28;98333.66;;;20.56;43.27
10587;BME280;5341;47.606;7.576;2023-03-23T11:56:57;98341.88;;;20.61;43.12
10587;BME280;5341;47.606;7.576;2023-03-23T11:59:29;98344.63;;;20.66;43.37
10587;BME280;5341;47.606;7.576;2023-03-23T12:02:09;98338.38;;;20.65;43.50
10587;BME280;5341;47.606;7.576;2023-03-23T12:05:03;98339.59;;;20.53;42.28
10587;BME280;5341;47.606;7.576;2023-03-23T12:07:48;98341.94;;;20.44;42.07
10587;BME280;5341;47.606;7.576;2023-03-23T12:10:25;98344.09;;;20.42;42.81
10587;BME280;5341;47.606;7.576;2023-03-23T12:13:09;98342.44;;;20.41;44.20
10587;BME280;5341;47.606;7.576;2023-03-23T12:15:44;98340.16;;;20.33;43.75
10587;BME280;5341;47.606;7.576;2023-03-23T12:18:22;98344.47;;;20.29;43.41
10587;BME280;5341;47.606;7.576;2023-03-23T12:21:02;98341.22;;;20.27;43.34
10587;BME280;5341;47.606;7.576;2023-03-23T12:23:42;98328.72;;;20.26;42.89
10587;BME280;5341;47.606;7.576;2023-03-23T12:26:17;98337.69;;;20.26;43.22
10587;BME280;5341;47.606;7.576;2023-03-23T12:29:10;98342.53;;;20.24;42.22
10587;BME280;5341;47.606;7.576;2023-03-23T12:31:47;98329.16;;;20.17;42.39
10587;BME280;5341;47.606;7.576;2023-03-23T12:34:25;98325.56;;;20.12;43.06
10587;BME280;5341;47.606;7.576;2023-03-23T12:37:07;98323.91;;;20.11;43.35
10587;BME280;5341;47.606;7.576;2023-03-23T12:42:54;98327.41;;;20.06;44.02
10587;BME280;5341;47.606;7.576;2023-03-23T12:45:37;98319.22;;;20.01;43.95
10587;BME280;5341;47.606;7.576;2023-03-23T12:48:12;98321.34;;;19.99;43.90
10587;BME280;5341;47.606;7.576;2023-03-23T12:50:45;98322.41;;;19.98;43.88
10587;BME280;5341;47.606;7.576;2023-03-23T12:53:19;98329.25;;;20.01;44.13
10587;BME280;5341;47.606;7.576;2023-03-23T12:55:50;98326.19;;;19.97;43.75
10587;BME280;5341;47.606;7.576;2023-03-23T12:58:23;98328.59;;;19.94;43.41
10587;BME280;5341;47.606;7.576;2023-03-23T13:00:57;98316.88;;;19.88;43.12
10587;BME280;5341;47.606;7.576;2023-03-23T13:03:28;98328.22;;;19.85;43.69
10587;BME280;5341;47.606;7.576;2023-03-23T13:06:05;98336.38;;;19.85;44.13
10587;BME280;5341;47.606;7.576;2023-03-23T13:08:38;98329.28;;;19.84;44.71
10587;BME280;5341;47.606;7.576;2023-03-23T13:11:12;98326.59;;;19.84;44.80
10587;BME280;5341;47.606;7.576;2023-03-23T13:13:45;98328.22;;;19.85;44.54
10587;BME280;5341;47.606;7.576;2023-03-23T13:16:25;98322.31;;;19.88;44.69
10587;BME280;5341;47.606;7.576;2023-03-23T13:19:04;98323.13;;;19.88;44.12
10587;BME280;5341;47.606;7.576;2023-03-23T13:21:40;98329.03;;;19.85;43.32
10587;BME280;5341;47.606;7.576;2023-03-23T13:24:12;98315.16;;;19.82;42.98
10587;BME280;5341;47.606;7.576;2023-03-23T13:26:41;98334.41;;;19.80;43.59
10587;BME280;5341;47.606;7.576;2023-03-23T13:29:12;98324.63;;;19.79;43.51
10587;BME280;5341;47.606;7.576;2023-03-23T13:31:41;98323.25;;;19.77;43.71
10587;BME280;5341;47.606;7.576;2023-03-23T13:34:16;98322.44;;;19.76;43.81
10587;BME280;5341;47.606;7.576;2023-03-23T13:36:54;98327.88;;;19.76;43.98
10587;BME280;5341;47.606;7.576;2023-03-23T13:39:24;98326.97;;;19.71;43.55
10587;BME280;5341;47.606;7.576;2023-03-23T13:42:18;98316.63;;;19.68;43.77
10587;BME280;5341;47.606;7.576;2023-03-23T13:44:56;98320.09;;;19.63;43.50
10587;BME280;5341;47.606;7.576;2023-03-23T13:47:37;98319.50;;;19.61;44.18
10587;BME280;5341;47.606;7.576;2023-03-23T13:50:12;98315.66;;;19.57;44.15
10587;BME280;5341;47.606;7.576;2023-03-23T13:52:52;98311.53;;;19.54;44.20
10587;BME280;5341;47.606;7.576;2023-03-23T13:55:30;98315.56;;;19.52;44.67
10587;BME280;5341;47.606;7.576;2023-03-23T13:58:09;98312.28;;;19.50;45.32